Sect Los Toledo, Puerto Rico
Current Conditions -  °F | °C
As of 7:50 AM on Wednesday 26 Nov 2014 (Local Time) from TJBQ Reporting Station
Overcast Overcast  
Wind Chill: 73°   Ceiling: 8500
Heat Index: 73°   Visibility: 10mi
Dew Point: 70°   Wind: 6mph
Humidity: 88%   Direction: 100°E
Pressure: 30.04"   Gusts: NA
Location:  18.4951°N, 67.0273°W
Report Text: TJBQ 261150Z 10005KT 10SM OVC085 23/21 A3004 RMK RWY08 ATIS G
Loading
Personal Weather Stations






























Interactive Weather Map New forecast layout! Learn more

10-Day Weather Forecast

Advertisements
Track Severe Weather on mobile